This is the latest recevied weather packets stored in our database for station/object N8TWM-13. If no packets are shown the sender has not sent any weather packets the latest 10 day(s).
| Time | Temp. | Humidity | Pressure | Rain* | Wind** | Luminosity | Snow |
|---|---|---|---|---|---|---|---|
| 1778090714 | 12.78° C | 57% | 1012.5 hPa | 0 mm | - | 225 W/m² | - |
| 1778090411 | 12.22° C | 56% | 1012.2 hPa | 0 mm | - | 314 W/m² | - |
| 1778090108 | 12.78° C | 56% | 1012.4 hPa | 0 mm | - | 212 W/m² | - |
| 1778089804 | 13.33° C | 56% | 1012.4 hPa | 0 mm | - | 348 W/m² | - |
| 1778089503 | 12.78° C | 57% | 1012.3 hPa | 0 mm | - | 582 W/m² | - |
| 1778089198 | 12.78° C | 56% | 1012.4 hPa | 0 mm | - | 350 W/m² | - |
| 1778088896 | 12.78° C | 59% | 1012.5 hPa | 0 mm | - | 383 W/m² | - |
| 1778088593 | 12.78° C | 58% | 1012.1 hPa | 0 mm | - | 286 W/m² | - |
| 1778088290 | 13.33° C | 58% | 1012 hPa | 0 mm | - | 347 W/m² | - |
| 1778087986 | 13.33° C | 60% | 1012.2 hPa | 0 mm | - | 341 W/m² | - |
| 1778087684 | 12.78° C | 59% | 1012.2 hPa | 0 mm | - | 434 W/m² | - |
| 1778087382 | 12.78° C | 59% | 1012.1 hPa | 0 mm | - | 382 W/m² | - |
| 1778087077 | 12.78° C | 60% | 1011.9 hPa | 0 mm | - | 399 W/m² | - |
| 1778086771 | 12.78° C | 59% | 1012.2 hPa | 0 mm | - | 547 W/m² | - |
| 1778086469 | 12.22° C | 60% | 1012.2 hPa | 0 mm | - | 695 W/m² | - |
| 1778086164 | 12.78° C | 63% | 1012.3 hPa | 0 mm | - | 597 W/m² | - |
| 1778085861 | 12.22° C | 62% | 1012.3 hPa | 0 mm | - | 315 W/m² | - |
| 1778085554 | 12.22° C | 61% | 1012.5 hPa | 0 mm | - | 353 W/m² | - |
| 1778085248 | 12.78° C | 64% | 1012.5 hPa | 0 mm | - | 351 W/m² | - |
| 1778084943 | 11.67° C | 63% | 1012.7 hPa | 0 mm | - | 845 W/m² | - |
| 1778084641 | 12.22° C | 62% | 1012.5 hPa | 0 mm | - | 663 W/m² | - |
| 1778084338 | 12.78° C | 61% | 1012.3 hPa | 0 mm | - | 286 W/m² | - |
| 1778084036 | 12.22° C | 56% | 1012.2 hPa | 0 mm | - | 735 W/m² | - |
| 1778083734 | 12.78° C | 63% | 1012.3 hPa | 0 mm | - | 360 W/m² | - |
| 1778083430 | 12.22° C | 66% | 1012 hPa | 0 mm | - | 414 W/m² | - |
* Rain latest hour (hover to see other rain measurements)
** Current wind speed in m/s (hover to see current wind gust speed)